sensor_id;sensor_type;location;lat;lon;timestamp;P1;durP1;ratioP1;P2;durP2;ratioP2
21959;SDS011;11144;43.030;25.108;2024-02-21T00:01:25;48.67;;;21.55;;
21959;SDS011;11144;43.030;25.108;2024-02-21T00:02:58;45.67;;;21.70;;
21959;SDS011;11144;43.030;25.108;2024-02-21T00:04:35;44.45;;;21.05;;
21959;SDS011;11144;43.030;25.108;2024-02-21T00:06:08;46.35;;;21.15;;
21959;SDS011;11144;43.030;25.108;2024-02-21T00:07:41;47.15;;;20.73;;
21959;SDS011;11144;43.030;25.108;2024-02-21T00:09:14;49.60;;;22.00;;
21959;SDS011;11144;43.030;25.108;2024-02-21T00:10:47;50.30;;;22.95;;
21959;SDS011;11144;43.030;25.108;2024-02-21T00:12:21;76.53;;;31.20;;
21959;SDS011;11144;43.030;25.108;2024-02-21T00:13:53;114.85;;;45.05;;
21959;SDS011;11144;43.030;25.108;2024-02-21T00:15:27;93.72;;;37.88;;
21959;SDS011;11144;43.030;25.108;2024-02-21T00:16:59;52.75;;;25.83;;
21959;SDS011;11144;43.030;25.108;2024-02-21T00:18:33;49.25;;;23.02;;
21959;SDS011;11144;43.030;25.108;2024-02-21T00:20:08;49.08;;;22.45;;
21959;SDS011;11144;43.030;25.108;2024-02-21T00:21:42;47.53;;;20.90;;
21959;SDS011;11144;43.030;25.108;2024-02-21T00:23:14;44.67;;;20.80;;
21959;SDS011;11144;43.030;25.108;2024-02-21T00:24:48;37.75;;;17.67;;
21959;SDS011;11144;43.030;25.108;2024-02-21T00:26:20;40.95;;;20.10;;
21959;SDS011;11144;43.030;25.108;2024-02-21T00:27:53;43.05;;;20.90;;
21959;SDS011;11144;43.030;25.108;2024-02-21T00:29:25;42.05;;;19.15;;
21959;SDS011;11144;43.030;25.108;2024-02-21T00:30:59;40.42;;;19.20;;
21959;SDS011;11144;43.030;25.108;2024-02-21T00:32:31;41.45;;;19.42;;
21959;SDS011;11144;43.030;25.108;2024-02-21T00:34:06;44.92;;;19.17;;
21959;SDS011;11144;43.030;25.108;2024-02-21T00:35:40;36.85;;;18.50;;
21959;SDS011;11144;43.030;25.108;2024-02-21T00:37:13;38.13;;;19.38;;
21959;SDS011;11144;43.030;25.108;2024-02-21T00:38:46;40.90;;;20.02;;
21959;SDS011;11144;43.030;25.108;2024-02-21T00:40:19;40.65;;;18.35;;
21959;SDS011;11144;43.030;25.108;2024-02-21T00:41:53;37.60;;;18.33;;
21959;SDS011;11144;43.030;25.108;2024-02-21T00:43:26;51.13;;;22.38;;
21959;SDS011;11144;43.030;25.108;2024-02-21T00:44:59;46.08;;;21.00;;
21959;SDS011;11144;43.030;25.108;2024-02-21T00:46:33;57.90;;;22.23;;
21959;SDS011;11144;43.030;25.108;2024-02-21T00:48:05;40.65;;;20.30;;
21959;SDS011;11144;43.030;25.108;2024-02-21T00:49:39;45.25;;;20.45;;
21959;SDS011;11144;43.030;25.108;2024-02-21T00:51:13;40.60;;;18.73;;
21959;SDS011;11144;43.030;25.108;2024-02-21T00:52:47;48.25;;;20.23;;
21959;SDS011;11144;43.030;25.108;2024-02-21T00:54:20;40.15;;;18.58;;
21959;SDS011;11144;43.030;25.108;2024-02-21T00:55:54;50.83;;;21.60;;
21959;SDS011;11144;43.030;25.108;2024-02-21T00:57:28;114.82;;;25.00;;
21959;SDS011;11144;43.030;25.108;2024-02-21T00:59:01;99.05;;;24.10;;
21959;SDS011;11144;43.030;25.108;2024-02-21T01:00:34;126.63;;;25.90;;
21959;SDS011;11144;43.030;25.108;2024-02-21T01:02:08;71.25;;;24.33;;
21959;SDS011;11144;43.030;25.108;2024-02-21T01:03:40;77.60;;;23.52;;
21959;SDS011;11144;43.030;25.108;2024-02-21T01:05:13;90.25;;;23.02;;
21959;SDS011;11144;43.030;25.108;2024-02-21T01:06:47;121.88;;;23.20;;
21959;SDS011;11144;43.030;25.108;2024-02-21T01:08:21;58.78;;;20.15;;
21959;SDS011;11144;43.030;25.108;2024-02-21T01:09:53;87.88;;;22.27;;
21959;SDS011;11144;43.030;25.108;2024-02-21T01:11:26;99.43;;;23.48;;
21959;SDS011;11144;43.030;25.108;2024-02-21T01:12:59;100.03;;;24.17;;
21959;SDS011;11144;43.030;25.108;2024-02-21T01:14:32;122.22;;;25.85;;
21959;SDS011;11144;43.030;25.108;2024-02-21T01:16:05;137.20;;;24.52;;
21959;SDS011;11144;43.030;25.108;2024-02-21T01:17:39;110.80;;;22.77;;
21959;SDS011;11144;43.030;25.108;2024-02-21T01:19:12;131.70;;;23.13;;
21959;SDS011;11144;43.030;25.108;2024-02-21T01:20:46;123.65;;;22.02;;
21959;SDS011;11144;43.030;25.108;2024-02-21T01:22:19;136.82;;;22.60;;
21959;SDS011;11144;43.030;25.108;2024-02-21T01:23:53;202.30;;;27.83;;
21959;SDS011;11144;43.030;25.108;2024-02-21T01:25:26;294.13;;;33.28;;
21959;SDS011;11144;43.030;25.108;2024-02-21T01:26:59;246.65;;;33.67;;
21959;SDS011;11144;43.030;25.108;2024-02-21T01:28:33;220.07;;;36.42;;
21959;SDS011;11144;43.030;25.108;2024-02-21T01:30:05;227.50;;;35.72;;
21959;SDS011;11144;43.030;25.108;2024-02-21T01:31:40;235.75;;;37.30;;
21959;SDS011;11144;43.030;25.108;2024-02-21T01:33:12;159.93;;;29.38;;
21959;SDS011;11144;43.030;25.108;2024-02-21T01:34:45;174.18;;;34.55;;
21959;SDS011;11144;43.030;25.108;2024-02-21T01:36:18;262.35;;;39.85;;
21959;SDS011;11144;43.030;25.108;2024-02-21T01:37:52;148.27;;;33.20;;
21959;SDS011;11144;43.030;25.108;2024-02-21T01:39:25;145.07;;;32.95;;
21959;SDS011;11144;43.030;25.108;2024-02-21T01:40:58;233.50;;;36.45;;
21959;SDS011;11144;43.030;25.108;2024-02-21T01:42:31;240.30;;;39.50;;
21959;SDS011;11144;43.030;25.108;2024-02-21T01:44:04;142.15;;;35.80;;
21959;SDS011;11144;43.030;25.108;2024-02-21T01:45:38;280.35;;;39.97;;
21959;SDS011;11144;43.030;25.108;2024-02-21T01:47:11;374.42;;;47.00;;
21959;SDS011;11144;43.030;25.108;2024-02-21T01:48:46;335.20;;;40.53;;
21959;SDS011;11144;43.030;25.108;2024-02-21T01:50:18;223.60;;;38.85;;
21959;SDS011;11144;43.030;25.108;2024-02-21T01:51:52;308.65;;;44.05;;
21959;SDS011;11144;43.030;25.108;2024-02-21T01:53:29;188.75;;;36.97;;
21959;SDS011;11144;43.030;25.108;2024-02-21T01:55:05;276.10;;;39.42;;
21959;SDS011;11144;43.030;25.108;2024-02-21T01:56:39;236.30;;;38.33;;
21959;SDS011;11144;43.030;25.108;2024-02-21T01:58:13;226.68;;;37.08;;
21959;SDS011;11144;43.030;25.108;2024-02-21T01:59:48;208.52;;;44.72;;
21959;SDS011;11144;43.030;25.108;2024-02-21T02:01:20;219.27;;;49.63;;
21959;SDS011;11144;43.030;25.108;2024-02-21T02:02:55;263.90;;;51.85;;
21959;SDS011;11144;43.030;25.108;2024-02-21T02:04:28;198.45;;;40.10;;
21959;SDS011;11144;43.030;25.108;2024-02-21T02:06:02;343.02;;;46.95;;
21959;SDS011;11144;43.030;25.108;2024-02-21T02:07:36;260.63;;;38.53;;
21959;SDS011;11144;43.030;25.108;2024-02-21T02:09:11;359.67;;;41.95;;
21959;SDS011;11144;43.030;25.108;2024-02-21T02:10:43;242.45;;;35.78;;
21959;SDS011;11144;43.030;25.108;2024-02-21T02:12:17;209.43;;;33.67;;
21959;SDS011;11144;43.030;25.108;2024-02-21T02:13:50;295.30;;;36.75;;
21959;SDS011;11144;43.030;25.108;2024-02-21T02:15:23;326.65;;;42.17;;
21959;SDS011;11144;43.030;25.108;2024-02-21T02:16:56;242.18;;;36.20;;
21959;SDS011;11144;43.030;25.108;2024-02-21T02:18:29;281.48;;;39.35;;
21959;SDS011;11144;43.030;25.108;2024-02-21T02:20:03;247.35;;;37.80;;
21959;SDS011;11144;43.030;25.108;2024-02-21T02:21:38;270.13;;;39.67;;
21959;SDS011;11144;43.030;25.108;2024-02-21T02:23:24;185.40;;;35.50;;
21959;SDS011;11144;43.030;25.108;2024-02-21T02:24:57;143.05;;;33.92;;
21959;SDS011;11144;43.030;25.108;2024-02-21T02:26:30;109.05;;;32.65;;
21959;SDS011;11144;43.030;25.108;2024-02-21T02:28:03;155.48;;;33.28;;
21959;SDS011;11144;43.030;25.108;2024-02-21T02:29:36;173.10;;;48.65;;
21959;SDS011;11144;43.030;25.108;2024-02-21T02:33:16;139.93;;;36.00;;
21959;SDS011;11144;43.030;25.108;2024-02-21T02:34:49;350.58;;;46.65;;
21959;SDS011;11144;43.030;25.108;2024-02-21T02:36:23;330.98;;;44.65;;
21959;SDS011;11144;43.030;25.108;2024-02-21T02:37:55;346.33;;;45.33;;
21959;SDS011;11144;43.030;25.108;2024-02-21T02:39:30;243.68;;;38.75;;
21959;SDS011;11144;43.030;25.108;2024-02-21T02:41:03;375.63;;;49.88;;
21959;SDS011;11144;43.030;25.108;2024-02-21T02:42:36;374.83;;;46.42;;
21959;SDS011;11144;43.030;25.108;2024-02-21T02:44:09;366.05;;;41.63;;
21959;SDS011;11144;43.030;25.108;2024-02-21T02:45:42;370.38;;;40.70;;
21959;SDS011;11144;43.030;25.108;2024-02-21T02:47:16;454.02;;;50.25;;
21959;SDS011;11144;43.030;25.108;2024-02-21T02:48:48;313.35;;;55.53;;
21959;SDS011;11144;43.030;25.108;2024-02-21T02:50:22;263.00;;;46.05;;
21959;SDS011;11144;43.030;25.108;2024-02-21T02:51:54;235.02;;;47.47;;
21959;SDS011;11144;43.030;25.108;2024-02-21T02:53:27;183.77;;;41.17;;
21959;SDS011;11144;43.030;25.108;2024-02-21T02:55:01;247.38;;;44.15;;
21959;SDS011;11144;43.030;25.108;2024-02-21T02:56:35;214.82;;;43.42;;
21959;SDS011;11144;43.030;25.108;2024-02-21T02:58:08;223.80;;;40.10;;
21959;SDS011;11144;43.030;25.108;2024-02-21T02:59:40;303.95;;;48.15;;
21959;SDS011;11144;43.030;25.108;2024-02-21T03:01:14;275.05;;;47.47;;
21959;SDS011;11144;43.030;25.108;2024-02-21T03:02:48;344.30;;;48.72;;
21959;SDS011;11144;43.030;25.108;2024-02-21T03:04:22;276.35;;;44.90;;
21959;SDS011;11144;43.030;25.108;2024-02-21T03:05:54;260.23;;;42.58;;
21959;SDS011;11144;43.030;25.108;2024-02-21T03:07:28;400.45;;;52.70;;
21959;SDS011;11144;43.030;25.108;2024-02-21T03:09:00;316.35;;;47.97;;
21959;SDS011;11144;43.030;25.108;2024-02-21T03:10:41;224.63;;;40.25;;
21959;SDS011;11144;43.030;25.108;2024-02-21T03:12:14;252.45;;;40.50;;
21959;SDS011;11144;43.030;25.108;2024-02-21T03:13:55;372.77;;;46.95;;
21959;SDS011;11144;43.030;25.108;2024-02-21T03:15:28;322.88;;;43.72;;
21959;SDS011;11144;43.030;25.108;2024-02-21T03:17:02;306.60;;;41.33;;
21959;SDS011;11144;43.030;25.108;2024-02-21T03:18:35;311.58;;;44.38;;
21959;SDS011;11144;43.030;25.108;2024-02-21T03:20:08;227.07;;;34.42;;
21959;SDS011;11144;43.030;25.108;2024-02-21T03:21:43;264.30;;;40.00;;
21959;SDS011;11144;43.030;25.108;2024-02-21T03:23:17;416.85;;;44.55;;
21959;SDS011;11144;43.030;25.108;2024-02-21T03:24:50;350.67;;;40.20;;
21959;SDS011;11144;43.030;25.108;2024-02-21T03:26:25;319.05;;;41.05;;
21959;SDS011;11144;43.030;25.108;2024-02-21T03:27:58;453.55;;;50.60;;
21959;SDS011;11144;43.030;25.108;2024-02-21T03:29:31;225.18;;;38.08;;
21959;SDS011;11144;43.030;25.108;2024-02-21T03:31:04;309.90;;;42.00;;
21959;SDS011;11144;43.030;25.108;2024-02-21T03:32:37;225.15;;;37.42;;
21959;SDS011;11144;43.030;25.108;2024-02-21T03:34:11;318.92;;;41.65;;
21959;SDS011;11144;43.030;25.108;2024-02-21T03:35:45;310.08;;;40.72;;
21959;SDS011;11144;43.030;25.108;2024-02-21T03:37:17;326.08;;;41.22;;
21959;SDS011;11144;43.030;25.108;2024-02-21T03:38:50;336.58;;;42.97;;
21959;SDS011;11144;43.030;25.108;2024-02-21T03:40:23;339.02;;;45.78;;
21959;SDS011;11144;43.030;25.108;2024-02-21T03:41:58;213.40;;;36.22;;
21959;SDS011;11144;43.030;25.108;2024-02-21T03:43:32;300.45;;;41.90;;
21959;SDS011;11144;43.030;25.108;2024-02-21T03:45:06;268.63;;;39.22;;
21959;SDS011;11144;43.030;25.108;2024-02-21T03:46:39;370.02;;;45.63;;
21959;SDS011;11144;43.030;25.108;2024-02-21T03:48:12;450.27;;;49.30;;
21959;SDS011;11144;43.030;25.108;2024-02-21T03:49:46;253.98;;;36.85;;
21959;SDS011;11144;43.030;25.108;2024-02-21T03:51:18;206.15;;;33.20;;
21959;SDS011;11144;43.030;25.108;2024-02-21T03:52:51;259.30;;;35.20;;
21959;SDS011;11144;43.030;25.108;2024-02-21T03:54:25;238.05;;;35.50;;
21959;SDS011;11144;43.030;25.108;2024-02-21T03:55:57;150.98;;;32.00;;
21959;SDS011;11144;43.030;25.108;2024-02-21T03:57:37;280.77;;;39.15;;
21959;SDS011;11144;43.030;25.108;2024-02-21T03:59:10;318.48;;;38.42;;
21959;SDS011;11144;43.030;25.108;2024-02-21T04:00:42;385.73;;;45.58;;
21959;SDS011;11144;43.030;25.108;2024-02-21T04:02:15;252.23;;;38.92;;
21959;SDS011;11144;43.030;25.108;2024-02-21T04:03:49;230.70;;;32.70;;
21959;SDS011;11144;43.030;25.108;2024-02-21T04:05:22;235.15;;;33.92;;
21959;SDS011;11144;43.030;25.108;2024-02-21T04:06:55;297.00;;;39.22;;
21959;SDS011;11144;43.030;25.108;2024-02-21T04:08:28;368.08;;;45.08;;
21959;SDS011;11144;43.030;25.108;2024-02-21T04:10:01;336.83;;;40.67;;
21959;SDS011;11144;43.030;25.108;2024-02-21T04:11:34;345.80;;;41.95;;
21959;SDS011;11144;43.030;25.108;2024-02-21T04:13:08;355.92;;;43.55;;
21959;SDS011;11144;43.030;25.108;2024-02-21T04:14:41;371.23;;;44.28;;
21959;SDS011;11144;43.030;25.108;2024-02-21T04:16:18;198.25;;;34.10;;
21959;SDS011;11144;43.030;25.108;2024-02-21T04:17:50;184.63;;;35.65;;
21959;SDS011;11144;43.030;25.108;2024-02-21T04:19:25;364.98;;;44.42;;
21959;SDS011;11144;43.030;25.108;2024-02-21T04:20:57;353.90;;;45.58;;
21959;SDS011;11144;43.030;25.108;2024-02-21T04:22:31;278.23;;;42.42;;
21959;SDS011;11144;43.030;25.108;2024-02-21T04:24:04;366.35;;;47.03;;
21959;SDS011;11144;43.030;25.108;2024-02-21T04:25:38;270.42;;;47.08;;
21959;SDS011;11144;43.030;25.108;2024-02-21T04:27:10;186.30;;;42.17;;
21959;SDS011;11144;43.030;25.108;2024-02-21T04:28:46;225.00;;;43.65;;
21959;SDS011;11144;43.030;25.108;2024-02-21T04:30:18;306.63;;;46.63;;
21959;SDS011;11144;43.030;25.108;2024-02-21T04:31:52;275.67;;;46.90;;
21959;SDS011;11144;43.030;25.108;2024-02-21T04:33:25;134.15;;;34.85;;
21959;SDS011;11144;43.030;25.108;2024-02-21T04:34:58;204.70;;;38.17;;
21959;SDS011;11144;43.030;25.108;2024-02-21T04:36:31;284.42;;;44.33;;
21959;SDS011;11144;43.030;25.108;2024-02-21T04:38:05;311.58;;;43.20;;
21959;SDS011;11144;43.030;25.108;2024-02-21T04:39:38;153.43;;;33.60;;
21959;SDS011;11144;43.030;25.108;2024-02-21T04:41:11;278.67;;;38.78;;
21959;SDS011;11144;43.030;25.108;2024-02-21T04:42:44;235.48;;;38.45;;
21959;SDS011;11144;43.030;25.108;2024-02-21T04:44:18;271.98;;;39.83;;
21959;SDS011;11144;43.030;25.108;2024-02-21T04:45:54;194.32;;;36.22;;
21959;SDS011;11144;43.030;25.108;2024-02-21T04:47:27;369.25;;;49.08;;
21959;SDS011;11144;43.030;25.108;2024-02-21T04:49:00;261.20;;;42.38;;
21959;SDS011;11144;43.030;25.108;2024-02-21T04:50:33;205.00;;;37.50;;
21959;SDS011;11144;43.030;25.108;2024-02-21T04:52:06;222.10;;;38.40;;
21959;SDS011;11144;43.030;25.108;2024-02-21T04:53:38;386.95;;;47.92;;
21959;SDS011;11144;43.030;25.108;2024-02-21T04:55:11;288.38;;;40.22;;
21959;SDS011;11144;43.030;25.108;2024-02-21T04:56:44;302.45;;;41.72;;
21959;SDS011;11144;43.030;25.108;2024-02-21T04:58:19;260.10;;;36.00;;
21959;SDS011;11144;43.030;25.108;2024-02-21T04:59:52;249.50;;;36.80;;
21959;SDS011;11144;43.030;25.108;2024-02-21T05:01:26;255.80;;;39.92;;
21959;SDS011;11144;43.030;25.108;2024-02-21T05:03:00;259.35;;;39.38;;
21959;SDS011;11144;43.030;25.108;2024-02-21T05:04:33;237.88;;;37.47;;
21959;SDS011;11144;43.030;25.108;2024-02-21T05:06:06;237.63;;;40.13;;
21959;SDS011;11144;43.030;25.108;2024-02-21T05:07:39;279.60;;;42.15;;
21959;SDS011;11144;43.030;25.108;2024-02-21T05:09:13;180.38;;;38.53;;
21959;SDS011;11144;43.030;25.108;2024-02-21T05:10:46;140.85;;;33.83;;
21959;SDS011;11144;43.030;25.108;2024-02-21T05:12:19;184.93;;;36.80;;
21959;SDS011;11144;43.030;25.108;2024-02-21T05:13:51;115.15;;;32.83;;
21959;SDS011;11144;43.030;25.108;2024-02-21T05:15:26;231.10;;;39.22;;
21959;SDS011;11144;43.030;25.108;2024-02-21T05:16:59;210.55;;;36.53;;
21959;SDS011;11144;43.030;25.108;2024-02-21T05:18:32;168.15;;;35.50;;
21959;SDS011;11144;43.030;25.108;2024-02-21T05:20:06;328.45;;;45.65;;
21959;SDS011;11144;43.030;25.108;2024-02-21T05:21:39;392.55;;;46.67;;
21959;SDS011;11144;43.030;25.108;2024-02-21T05:23:12;316.20;;;50.30;;
21959;SDS011;11144;43.030;25.108;2024-02-21T05:24:45;402.17;;;59.55;;
21959;SDS011;11144;43.030;25.108;2024-02-21T05:26:21;363.98;;;56.17;;
21959;SDS011;11144;43.030;25.108;2024-02-21T05:27:55;244.15;;;44.83;;
21959;SDS011;11144;43.030;25.108;2024-02-21T05:29:27;166.48;;;35.67;;
21959;SDS011;11144;43.030;25.108;2024-02-21T05:31:02;177.68;;;37.50;;
21959;SDS011;11144;43.030;25.108;2024-02-21T05:32:35;225.23;;;38.83;;
21959;SDS011;11144;43.030;25.108;2024-02-21T05:34:08;189.55;;;36.60;;
21959;SDS011;11144;43.030;25.108;2024-02-21T05:35:40;221.30;;;40.00;;
21959;SDS011;11144;43.030;25.108;2024-02-21T05:37:14;231.52;;;41.92;;
21959;SDS011;11144;43.030;25.108;2024-02-21T05:38:47;224.48;;;49.90;;
21959;SDS011;11144;43.030;25.108;2024-02-21T05:40:20;141.52;;;34.33;;
21959;SDS011;11144;43.030;25.108;2024-02-21T05:41:52;115.93;;;33.72;;
21959;SDS011;11144;43.030;25.108;2024-02-21T05:43:26;117.95;;;33.17;;
21959;SDS011;11144;43.030;25.108;2024-02-21T05:44:59;130.38;;;33.38;;
21959;SDS011;11144;43.030;25.108;2024-02-21T05:46:33;110.18;;;34.20;;
21959;SDS011;11144;43.030;25.108;2024-02-21T05:48:06;97.10;;;32.55;;
21959;SDS011;11144;43.030;25.108;2024-02-21T05:49:40;133.55;;;38.60;;
21959;SDS011;11144;43.030;25.108;2024-02-21T05:51:12;128.48;;;35.08;;
21959;SDS011;11144;43.030;25.108;2024-02-21T05:52:46;127.85;;;37.83;;
21959;SDS011;11144;43.030;25.108;2024-02-21T05:54:20;118.25;;;39.42;;
21959;SDS011;11144;43.030;25.108;2024-02-21T05:55:52;93.72;;;32.08;;
21959;SDS011;11144;43.030;25.108;2024-02-21T05:57:25;107.85;;;39.83;;
21959;SDS011;11144;43.030;25.108;2024-02-21T05:58:58;76.85;;;28.83;;
21959;SDS011;11144;43.030;25.108;2024-02-21T06:00:31;72.88;;;27.02;;
21959;SDS011;11144;43.030;25.108;2024-02-21T06:02:06;81.00;;;29.33;;
21959;SDS011;11144;43.030;25.108;2024-02-21T06:03:38;118.35;;;34.33;;
21959;SDS011;11144;43.030;25.108;2024-02-21T06:05:12;97.05;;;33.03;;
21959;SDS011;11144;43.030;25.108;2024-02-21T06:06:45;75.20;;;29.55;;
21959;SDS011;11144;43.030;25.108;2024-02-21T06:08:18;84.00;;;30.27;;
21959;SDS011;11144;43.030;25.108;2024-02-21T06:09:52;107.15;;;30.75;;
21959;SDS011;11144;43.030;25.108;2024-02-21T06:11:24;76.43;;;28.88;;
21959;SDS011;11144;43.030;25.108;2024-02-21T06:12:57;77.93;;;27.85;;
21959;SDS011;11144;43.030;25.108;2024-02-21T06:14:30;65.03;;;23.73;;
21959;SDS011;11144;43.030;25.108;2024-02-21T06:16:04;59.10;;;23.92;;
21959;SDS011;11144;43.030;25.108;2024-02-21T06:17:39;59.70;;;22.80;;
21959;SDS011;11144;43.030;25.108;2024-02-21T06:19:13;59.95;;;24.25;;
21959;SDS011;11144;43.030;25.108;2024-02-21T06:20:45;65.05;;;27.38;;
21959;SDS011;11144;43.030;25.108;2024-02-21T06:22:19;71.00;;;26.80;;
21959;SDS011;11144;43.030;25.108;2024-02-21T06:23:52;65.05;;;31.10;;
21959;SDS011;11144;43.030;25.108;2024-02-21T06:25:25;65.50;;;26.88;;
21959;SDS011;11144;43.030;25.108;2024-02-21T06:26:57;78.10;;;31.85;;
21959;SDS011;11144;43.030;25.108;2024-02-21T06:28:30;90.00;;;48.58;;
21959;SDS011;11144;43.030;25.108;2024-02-21T06:30:03;72.47;;;31.00;;
21959;SDS011;11144;43.030;25.108;2024-02-21T06:31:37;71.05;;;29.33;;
21959;SDS011;11144;43.030;25.108;2024-02-21T06:33:11;69.00;;;33.38;;
21959;SDS011;11144;43.030;25.108;2024-02-21T06:34:45;70.07;;;30.83;;
21959;SDS011;11144;43.030;25.108;2024-02-21T06:36:18;61.95;;;27.33;;
21959;SDS011;11144;43.030;25.108;2024-02-21T06:37:50;63.30;;;27.05;;
21959;SDS011;11144;43.030;25.108;2024-02-21T06:39:24;51.13;;;23.20;;
21959;SDS011;11144;43.030;25.108;2024-02-21T06:40:57;55.08;;;22.30;;
21959;SDS011;11144;43.030;25.108;2024-02-21T06:42:32;53.72;;;22.50;;
21959;SDS011;11144;43.030;25.108;2024-02-21T06:44:04;55.53;;;23.23;;
21959;SDS011;11144;43.030;25.108;2024-02-21T06:45:38;46.53;;;22.40;;
21959;SDS011;11144;43.030;25.108;2024-02-21T06:47:10;51.58;;;22.60;;
21959;SDS011;11144;43.030;25.108;2024-02-21T06:48:45;45.97;;;22.63;;
21959;SDS011;11144;43.030;25.108;2024-02-21T06:50:18;43.22;;;22.35;;
21959;SDS011;11144;43.030;25.108;2024-02-21T06:51:52;49.60;;;23.00;;
21959;SDS011;11144;43.030;25.108;2024-02-21T06:53:24;48.55;;;23.60;;
21959;SDS011;11144;43.030;25.108;2024-02-21T06:54:58;55.88;;;26.50;;
21959;SDS011;11144;43.030;25.108;2024-02-21T06:56:30;46.55;;;24.05;;
21959;SDS011;11144;43.030;25.108;2024-02-21T06:58:03;58.10;;;27.25;;
21959;SDS011;11144;43.030;25.108;2024-02-21T06:59:35;52.25;;;25.23;;
21959;SDS011;11144;43.030;25.108;2024-02-21T07:01:09;48.33;;;26.55;;
21959;SDS011;11144;43.030;25.108;2024-02-21T07:02:42;66.95;;;33.78;;
21959;SDS011;11144;43.030;25.108;2024-02-21T07:04:16;61.53;;;32.67;;
21959;SDS011;11144;43.030;25.108;2024-02-21T07:05:50;58.42;;;32.60;;
21959;SDS011;11144;43.030;25.108;2024-02-21T07:07:22;59.28;;;31.67;;
21959;SDS011;11144;43.030;25.108;2024-02-21T07:08:55;61.40;;;33.17;;
21959;SDS011;11144;43.030;25.108;2024-02-21T07:10:28;64.10;;;35.08;;
21959;SDS011;11144;43.030;25.108;2024-02-21T07:12:01;59.60;;;33.40;;
21959;SDS011;11144;43.030;25.108;2024-02-21T07:13:35;63.63;;;38.80;;
21959;SDS011;11144;43.030;25.108;2024-02-21T07:15:09;53.53;;;30.88;;
21959;SDS011;11144;43.030;25.108;2024-02-21T07:16:41;51.13;;;30.75;;
21959;SDS011;11144;43.030;25.108;2024-02-21T07:18:14;52.97;;;29.70;;
21959;SDS011;11144;43.030;25.108;2024-02-21T07:19:48;51.75;;;29.40;;
21959;SDS011;11144;43.030;25.108;2024-02-21T07:21:21;55.00;;;29.00;;
21959;SDS011;11144;43.030;25.108;2024-02-21T07:22:53;68.38;;;34.45;;
21959;SDS011;11144;43.030;25.108;2024-02-21T07:24:27;71.32;;;34.67;;
21959;SDS011;11144;43.030;25.108;2024-02-21T07:25:59;76.60;;;36.97;;
21959;SDS011;11144;43.030;25.108;2024-02-21T07:27:33;70.55;;;33.88;;
21959;SDS011;11144;43.030;25.108;2024-02-21T07:29:05;93.47;;;41.00;;
21959;SDS011;11144;43.030;25.108;2024-02-21T07:30:38;89.30;;;43.88;;
21959;SDS011;11144;43.030;25.108;2024-02-21T07:32:12;99.10;;;45.05;;
21959;SDS011;11144;43.030;25.108;2024-02-21T07:33:44;90.93;;;42.63;;
21959;SDS011;11144;43.030;25.108;2024-02-21T07:35:19;91.72;;;41.63;;
21959;SDS011;11144;43.030;25.108;2024-02-21T07:36:52;86.25;;;39.47;;
21959;SDS011;11144;43.030;25.108;2024-02-21T07:38:25;93.25;;;39.97;;
21959;SDS011;11144;43.030;25.108;2024-02-21T07:39:58;107.32;;;42.55;;
21959;SDS011;11144;43.030;25.108;2024-02-21T07:41:31;100.25;;;43.97;;
21959;SDS011;11144;43.030;25.108;2024-02-21T07:43:05;99.68;;;44.38;;
21959;SDS011;11144;43.030;25.108;2024-02-21T07:44:39;112.78;;;47.08;;
21959;SDS011;11144;43.030;25.108;2024-02-21T07:46:11;128.85;;;52.05;;
21959;SDS011;11144;43.030;25.108;2024-02-21T07:47:44;119.38;;;49.67;;
21959;SDS011;11144;43.030;25.108;2024-02-21T07:49:17;113.25;;;48.80;;
21959;SDS011;11144;43.030;25.108;2024-02-21T07:50:51;111.53;;;50.58;;
21959;SDS011;11144;43.030;25.108;2024-02-21T07:52:25;114.32;;;48.58;;
21959;SDS011;11144;43.030;25.108;2024-02-21T07:53:58;122.85;;;51.85;;
21959;SDS011;11144;43.030;25.108;2024-02-21T07:55:30;114.80;;;51.63;;
21959;SDS011;11144;43.030;25.108;2024-02-21T07:57:04;132.07;;;59.45;;
21959;SDS011;11144;43.030;25.108;2024-02-21T07:58:36;97.25;;;44.78;;
21959;SDS011;11144;43.030;25.108;2024-02-21T08:00:10;102.63;;;46.92;;
21959;SDS011;11144;43.030;25.108;2024-02-21T08:01:49;108.45;;;50.00;;
21959;SDS011;11144;43.030;25.108;2024-02-21T08:03:22;99.68;;;49.17;;
21959;SDS011;11144;43.030;25.108;2024-02-21T08:04:55;88.80;;;47.33;;
21959;SDS011;11144;43.030;25.108;2024-02-21T08:06:29;90.35;;;41.97;;
21959;SDS011;11144;43.030;25.108;2024-02-21T08:08:02;80.95;;;41.97;;
21959;SDS011;11144;43.030;25.108;2024-02-21T08:09:36;80.05;;;41.20;;
21959;SDS011;11144;43.030;25.108;2024-02-21T08:11:12;91.82;;;44.28;;
21959;SDS011;11144;43.030;25.108;2024-02-21T08:12:44;77.15;;;42.55;;
21959;SDS011;11144;43.030;25.108;2024-02-21T08:14:17;93.28;;;43.30;;
21959;SDS011;11144;43.030;25.108;2024-02-21T08:15:51;86.28;;;43.72;;
21959;SDS011;11144;43.030;25.108;2024-02-21T08:17:25;76.53;;;39.88;;
21959;SDS011;11144;43.030;25.108;2024-02-21T08:18:57;76.60;;;40.05;;
21959;SDS011;11144;43.030;25.108;2024-02-21T08:20:31;86.85;;;45.08;;
21959;SDS011;11144;43.030;25.108;2024-02-21T08:22:05;88.40;;;48.30;;
21959;SDS011;11144;43.030;25.108;2024-02-21T08:23:38;92.65;;;50.00;;
21959;SDS011;11144;43.030;25.108;2024-02-21T08:25:10;74.13;;;41.80;;
21959;SDS011;11144;43.030;25.108;2024-02-21T08:26:44;60.92;;;36.65;;
21959;SDS011;11144;43.030;25.108;2024-02-21T08:28:16;67.47;;;35.92;;
21959;SDS011;11144;43.030;25.108;2024-02-21T08:29:50;45.63;;;28.17;;
21959;SDS011;11144;43.030;25.108;2024-02-21T08:31:22;44.22;;;24.90;;
21959;SDS011;11144;43.030;25.108;2024-02-21T08:32:56;36.15;;;20.42;;
21959;SDS011;11144;43.030;25.108;2024-02-21T08:34:28;40.53;;;20.30;;
21959;SDS011;11144;43.030;25.108;2024-02-21T08:36:06;43.63;;;24.77;;
21959;SDS011;11144;43.030;25.108;2024-02-21T08:37:41;49.38;;;26.58;;
21959;SDS011;11144;43.030;25.108;2024-02-21T08:39:15;48.22;;;26.38;;
21959;SDS011;11144;43.030;25.108;2024-02-21T08:40:48;40.33;;;23.90;;
21959;SDS011;11144;43.030;25.108;2024-02-21T08:42:22;42.47;;;24.42;;
21959;SDS011;11144;43.030;25.108;2024-02-21T08:43:54;62.08;;;27.63;;
21959;SDS011;11144;43.030;25.108;2024-02-21T08:45:27;73.13;;;33.80;;
21959;SDS011;11144;43.030;25.108;2024-02-21T08:47:01;41.55;;;23.05;;
21959;SDS011;11144;43.030;25.108;2024-02-21T08:48:35;36.17;;;19.58;;
21959;SDS011;11144;43.030;25.108;2024-02-21T08:50:08;31.55;;;18.25;;
21959;SDS011;11144;43.030;25.108;2024-02-21T08:51:57;29.35;;;18.50;;
21959;SDS011;11144;43.030;25.108;2024-02-21T08:53:32;35.05;;;20.38;;
21959;SDS011;11144;43.030;25.108;2024-02-21T08:55:05;31.17;;;17.85;;
21959;SDS011;11144;43.030;25.108;2024-02-21T08:56:39;30.73;;;17.80;;